sensor_id;sensor_type;location;lat;lon;timestamp;P1;P2;P0
70570;PMS5003;58135;50.948;-1.458;2022-09-09T00:02:10;3;3;
70570;PMS5003;58135;50.948;-1.458;2022-09-09T00:04:35;2;2;
70570;PMS5003;58135;50.948;-1.458;2022-09-09T00:07:03;2;2;
70570;PMS5003;58135;50.948;-1.458;2022-09-09T00:09:26;2;2;
70570;PMS5003;58135;50.948;-1.458;2022-09-09T00:11:52;4;4;
70570;PMS5003;58135;50.948;-1.458;2022-09-09T00:14:19;3;3;
70570;PMS5003;58135;50.948;-1.458;2022-09-09T00:16:43;4;4;
70570;PMS5003;58135;50.948;-1.458;2022-09-09T00:19:08;4;4;
70570;PMS5003;58135;50.948;-1.458;2022-09-09T00:21:34;4;3;
70570;PMS5003;58135;50.948;-1.458;2022-09-09T00:23:59;3;3;
70570;PMS5003;58135;50.948;-1.458;2022-09-09T00:26:26;2;2;
70570;PMS5003;58135;50.948;-1.458;2022-09-09T00:28:50;2;2;
70570;PMS5003;58135;50.948;-1.458;2022-09-09T00:31:16;1;1;
70570;PMS5003;58135;50.948;-1.458;2022-09-09T00:33:40;4;3;
70570;PMS5003;58135;50.948;-1.458;2022-09-09T00:36:07;2;2;
70570;PMS5003;58135;50.948;-1.458;2022-09-09T00:38:32;2;2;
70570;PMS5003;58135;50.948;-1.458;2022-09-09T00:41:00;3;3;
70570;PMS5003;58135;50.948;-1.458;2022-09-09T00:43:25;6;5;
70570;PMS5003;58135;50.948;-1.458;2022-09-09T00:45:53;3;3;
70570;PMS5003;58135;50.948;-1.458;2022-09-09T00:48:14;2;2;
70570;PMS5003;58135;50.948;-1.458;2022-09-09T00:50:43;3;3;
70570;PMS5003;58135;50.948;-1.458;2022-09-09T00:53:09;3;3;
70570;PMS5003;58135;50.948;-1.458;2022-09-09T00:55:33;3;3;
70570;PMS5003;58135;50.948;-1.458;2022-09-09T00:57:56;2;2;
70570;PMS5003;58135;50.948;-1.458;2022-09-09T01:00:23;2;2;
70570;PMS5003;58135;50.948;-1.458;2022-09-09T01:02:51;5;5;
70570;PMS5003;58135;50.948;-1.458;2022-09-09T01:05:15;4;3;
70570;PMS5003;58135;50.948;-1.458;2022-09-09T01:07:38;5;4;
70570;PMS5003;58135;50.948;-1.458;2022-09-09T01:10:04;4;3;
70570;PMS5003;58135;50.948;-1.458;2022-09-09T01:12:32;6;5;
70570;PMS5003;58135;50.948;-1.458;2022-09-09T01:14:58;6;5;
70570;PMS5003;58135;50.948;-1.458;2022-09-09T01:17:20;2;2;
70570;PMS5003;58135;50.948;-1.458;2022-09-09T01:19:49;4;4;
70570;PMS5003;58135;50.948;-1.458;2022-09-09T01:22:12;4;3;
70570;PMS5003;58135;50.948;-1.458;2022-09-09T01:24:38;4;3;
70570;PMS5003;58135;50.948;-1.458;2022-09-09T01:27:02;4;4;
70570;PMS5003;58135;50.948;-1.458;2022-09-09T01:29:28;4;4;
70570;PMS5003;58135;50.948;-1.458;2022-09-09T01:31:54;3;3;
70570;PMS5003;58135;50.948;-1.458;2022-09-09T01:34:19;5;5;
70570;PMS5003;58135;50.948;-1.458;2022-09-09T01:36:45;6;6;
70570;PMS5003;58135;50.948;-1.458;2022-09-09T01:39:10;7;6;
70570;PMS5003;58135;50.948;-1.458;2022-09-09T01:41:35;4;4;
70570;PMS5003;58135;50.948;-1.458;2022-09-09T01:44:01;5;5;
70570;PMS5003;58135;50.948;-1.458;2022-09-09T01:46:27;3;3;
70570;PMS5003;58135;50.948;-1.458;2022-09-09T01:48:52;5;5;
70570;PMS5003;58135;50.948;-1.458;2022-09-09T01:51:17;6;5;
70570;PMS5003;58135;50.948;-1.458;2022-09-09T01:53:43;6;4;
70570;PMS5003;58135;50.948;-1.458;2022-09-09T01:56:11;6;6;
70570;PMS5003;58135;50.948;-1.458;2022-09-09T01:58:37;6;6;
70570;PMS5003;58135;50.948;-1.458;2022-09-09T02:01:02;6;6;
70570;PMS5003;58135;50.948;-1.458;2022-09-09T02:03:26;5;4;
70570;PMS5003;58135;50.948;-1.458;2022-09-09T02:05:52;6;6;
70570;PMS5003;58135;50.948;-1.458;2022-09-09T02:08:17;8;8;
70570;PMS5003;58135;50.948;-1.458;2022-09-09T02:10:43;7;7;
70570;PMS5003;58135;50.948;-1.458;2022-09-09T02:13:09;7;7;
70570;PMS5003;58135;50.948;-1.458;2022-09-09T02:15:34;7;6;
70570;PMS5003;58135;50.948;-1.458;2022-09-09T02:17:58;6;6;
70570;PMS5003;58135;50.948;-1.458;2022-09-09T02:20:23;6;6;
70570;PMS5003;58135;50.948;-1.458;2022-09-09T02:22:50;8;7;
70570;PMS5003;58135;50.948;-1.458;2022-09-09T02:25:15;8;5;
70570;PMS5003;58135;50.948;-1.458;2022-09-09T02:27:40;7;7;
70570;PMS5003;58135;50.948;-1.458;2022-09-09T02:30:06;6;6;
70570;PMS5003;58135;50.948;-1.458;2022-09-09T02:32:31;7;6;
70570;PMS5003;58135;50.948;-1.458;2022-09-09T02:34:57;6;6;
70570;PMS5003;58135;50.948;-1.458;2022-09-09T02:37:22;7;6;
70570;PMS5003;58135;50.948;-1.458;2022-09-09T02:39:47;6;6;
70570;PMS5003;58135;50.948;-1.458;2022-09-09T02:42:13;5;5;
70570;PMS5003;58135;50.948;-1.458;2022-09-09T02:44:38;9;8;
70570;PMS5003;58135;50.948;-1.458;2022-09-09T02:47:07;6;6;
70570;PMS5003;58135;50.948;-1.458;2022-09-09T02:49:32;9;8;
70570;PMS5003;58135;50.948;-1.458;2022-09-09T02:51:58;9;8;
70570;PMS5003;58135;50.948;-1.458;2022-09-09T02:54:21;7;7;
70570;PMS5003;58135;50.948;-1.458;2022-09-09T02:56:47;10;8;
70570;PMS5003;58135;50.948;-1.458;2022-09-09T02:59:11;8;8;
70570;PMS5003;58135;50.948;-1.458;2022-09-09T03:01:37;7;7;
70570;PMS5003;58135;50.948;-1.458;2022-09-09T03:04:02;7;7;
70570;PMS5003;58135;50.948;-1.458;2022-09-09T03:06:28;7;7;
70570;PMS5003;58135;50.948;-1.458;2022-09-09T03:08:53;7;7;
70570;PMS5003;58135;50.948;-1.458;2022-09-09T03:11:19;7;7;
70570;PMS5003;58135;50.948;-1.458;2022-09-09T03:13:45;8;8;
70570;PMS5003;58135;50.948;-1.458;2022-09-09T03:16:10;10;9;
70570;PMS5003;58135;50.948;-1.458;2022-09-09T03:18:35;9;9;
70570;PMS5003;58135;50.948;-1.458;2022-09-09T03:21:01;9;9;
70570;PMS5003;58135;50.948;-1.458;2022-09-09T03:23:27;9;8;
70570;PMS5003;58135;50.948;-1.458;2022-09-09T03:25:52;9;9;
70570;PMS5003;58135;50.948;-1.458;2022-09-09T03:28:18;9;9;
70570;PMS5003;58135;50.948;-1.458;2022-09-09T03:30:43;10;10;
70570;PMS5003;58135;50.948;-1.458;2022-09-09T03:33:09;9;8;
70570;PMS5003;58135;50.948;-1.458;2022-09-09T03:35:34;9;9;
70570;PMS5003;58135;50.948;-1.458;2022-09-09T03:38:00;11;11;
70570;PMS5003;58135;50.948;-1.458;2022-09-09T03:40:25;8;8;
70570;PMS5003;58135;50.948;-1.458;2022-09-09T03:42:50;9;9;
70570;PMS5003;58135;50.948;-1.458;2022-09-09T03:45:16;9;9;
70570;PMS5003;58135;50.948;-1.458;2022-09-09T03:47:41;11;11;
70570;PMS5003;58135;50.948;-1.458;2022-09-09T03:50:07;8;8;
70570;PMS5003;58135;50.948;-1.458;2022-09-09T03:52:34;10;9;
70570;PMS5003;58135;50.948;-1.458;2022-09-09T03:54:57;10;10;
70570;PMS5003;58135;50.948;-1.458;2022-09-09T03:57:23;9;9;
70570;PMS5003;58135;50.948;-1.458;2022-09-09T03:59:48;10;10;
70570;PMS5003;58135;50.948;-1.458;2022-09-09T04:02:14;9;9;
70570;PMS5003;58135;50.948;-1.458;2022-09-09T04:04:39;10;10;
70570;PMS5003;58135;50.948;-1.458;2022-09-09T04:07:05;11;11;
70570;PMS5003;58135;50.948;-1.458;2022-09-09T04:09:30;10;9;
70570;PMS5003;58135;50.948;-1.458;2022-09-09T04:11:56;10;10;
70570;PMS5003;58135;50.948;-1.458;2022-09-09T04:14:21;9;9;
70570;PMS5003;58135;50.948;-1.458;2022-09-09T04:16:47;11;11;
70570;PMS5003;58135;50.948;-1.458;2022-09-09T04:19:12;10;9;
70570;PMS5003;58135;50.948;-1.458;2022-09-09T04:21:38;14;14;
70570;PMS5003;58135;50.948;-1.458;2022-09-09T04:24:04;14;14;
70570;PMS5003;58135;50.948;-1.458;2022-09-09T04:26:29;13;12;
70570;PMS5003;58135;50.948;-1.458;2022-09-09T04:28:55;11;11;
70570;PMS5003;58135;50.948;-1.458;2022-09-09T04:31:21;12;12;
70570;PMS5003;58135;50.948;-1.458;2022-09-09T04:33:46;10;10;
70570;PMS5003;58135;50.948;-1.458;2022-09-09T04:36:11;12;11;
70570;PMS5003;58135;50.948;-1.458;2022-09-09T04:38:37;12;12;
70570;PMS5003;58135;50.948;-1.458;2022-09-09T04:41:02;9;9;
70570;PMS5003;58135;50.948;-1.458;2022-09-09T04:43:27;11;10;
70570;PMS5003;58135;50.948;-1.458;2022-09-09T04:45:53;12;12;
70570;PMS5003;58135;50.948;-1.458;2022-09-09T04:48:19;12;12;
70570;PMS5003;58135;50.948;-1.458;2022-09-09T04:50:44;10;10;
70570;PMS5003;58135;50.948;-1.458;2022-09-09T04:53:09;12;12;
70570;PMS5003;58135;50.948;-1.458;2022-09-09T04:55:35;10;9;
70570;PMS5003;58135;50.948;-1.458;2022-09-09T04:58:02;9;9;
70570;PMS5003;58135;50.948;-1.458;2022-09-09T05:00:25;9;9;
70570;PMS5003;58135;50.948;-1.458;2022-09-09T05:02:51;10;10;
70570;PMS5003;58135;50.948;-1.458;2022-09-09T05:05:17;7;7;
70570;PMS5003;58135;50.948;-1.458;2022-09-09T05:07:42;9;9;
70570;PMS5003;58135;50.948;-1.458;2022-09-09T05:10:08;10;10;
70570;PMS5003;58135;50.948;-1.458;2022-09-09T05:12:33;9;9;
70570;PMS5003;58135;50.948;-1.458;2022-09-09T05:14:58;10;9;
70570;PMS5003;58135;50.948;-1.458;2022-09-09T05:17:24;9;7;
70570;PMS5003;58135;50.948;-1.458;2022-09-09T05:19:49;9;9;
70570;PMS5003;58135;50.948;-1.458;2022-09-09T05:22:18;8;8;
70570;PMS5003;58135;50.948;-1.458;2022-09-09T05:24:40;9;9;
70570;PMS5003;58135;50.948;-1.458;2022-09-09T05:27:06;11;11;
70570;PMS5003;58135;50.948;-1.458;2022-09-09T05:29:31;7;7;
70570;PMS5003;58135;50.948;-1.458;2022-09-09T05:31:56;11;9;
70570;PMS5003;58135;50.948;-1.458;2022-09-09T05:34:22;8;7;
70570;PMS5003;58135;50.948;-1.458;2022-09-09T05:36:48;7;7;
70570;PMS5003;58135;50.948;-1.458;2022-09-09T05:39:13;8;7;
70570;PMS5003;58135;50.948;-1.458;2022-09-09T05:41:39;8;8;
70570;PMS5003;58135;50.948;-1.458;2022-09-09T05:44:04;9;9;
70570;PMS5003;58135;50.948;-1.458;2022-09-09T05:46:30;11;10;
70570;PMS5003;58135;50.948;-1.458;2022-09-09T05:48:55;7;7;
70570;PMS5003;58135;50.948;-1.458;2022-09-09T05:51:21;10;10;
70570;PMS5003;58135;50.948;-1.458;2022-09-09T05:53:46;11;10;
70570;PMS5003;58135;50.948;-1.458;2022-09-09T05:56:12;9;9;
70570;PMS5003;58135;50.948;-1.458;2022-09-09T05:58:37;9;9;
70570;PMS5003;58135;50.948;-1.458;2022-09-09T06:01:04;11;11;
70570;PMS5003;58135;50.948;-1.458;2022-09-09T06:03:28;11;11;
70570;PMS5003;58135;50.948;-1.458;2022-09-09T06:05:57;11;11;
70570;PMS5003;58135;50.948;-1.458;2022-09-09T06:08:19;10;10;
70570;PMS5003;58135;50.948;-1.458;2022-09-09T06:10:45;10;10;
70570;PMS5003;58135;50.948;-1.458;2022-09-09T06:13:10;15;14;
70570;PMS5003;58135;50.948;-1.458;2022-09-09T06:15:36;11;11;
70570;PMS5003;58135;50.948;-1.458;2022-09-09T06:18:02;12;11;
70570;PMS5003;58135;50.948;-1.458;2022-09-09T06:20:27;15;15;
70570;PMS5003;58135;50.948;-1.458;2022-09-09T06:22:52;11;11;
70570;PMS5003;58135;50.948;-1.458;2022-09-09T06:25:18;14;13;
70570;PMS5003;58135;50.948;-1.458;2022-09-09T06:27:47;13;13;
70570;PMS5003;58135;50.948;-1.458;2022-09-09T06:30:09;13;12;
70570;PMS5003;58135;50.948;-1.458;2022-09-09T06:32:34;11;10;
70570;PMS5003;58135;50.948;-1.458;2022-09-09T06:35:00;11;11;
70570;PMS5003;58135;50.948;-1.458;2022-09-09T06:37:25;15;15;
70570;PMS5003;58135;50.948;-1.458;2022-09-09T06:39:51;14;13;
70570;PMS5003;58135;50.948;-1.458;2022-09-09T06:42:16;14;13;
70570;PMS5003;58135;50.948;-1.458;2022-09-09T06:44:42;15;15;
70570;PMS5003;58135;50.948;-1.458;2022-09-09T06:47:12;14;14;
70570;PMS5003;58135;50.948;-1.458;2022-09-09T06:49:33;12;12;
70570;PMS5003;58135;50.948;-1.458;2022-09-09T06:51:58;12;12;
70570;PMS5003;58135;50.948;-1.458;2022-09-09T06:54:24;13;12;
70570;PMS5003;58135;50.948;-1.458;2022-09-09T06:56:50;12;12;
70570;PMS5003;58135;50.948;-1.458;2022-09-09T06:59:16;11;11;
70570;PMS5003;58135;50.948;-1.458;2022-09-09T07:01:41;12;12;
70570;PMS5003;58135;50.948;-1.458;2022-09-09T07:04:06;10;9;
70570;PMS5003;58135;50.948;-1.458;2022-09-09T07:06:32;8;8;
70570;PMS5003;58135;50.948;-1.458;2022-09-09T07:08:58;9;8;
70570;PMS5003;58135;50.948;-1.458;2022-09-09T07:11:23;8;7;
70570;PMS5003;58135;50.948;-1.458;2022-09-09T07:13:48;11;9;
70570;PMS5003;58135;50.948;-1.458;2022-09-09T07:16:15;6;6;
70570;PMS5003;58135;50.948;-1.458;2022-09-09T07:18:39;8;7;
70570;PMS5003;58135;50.948;-1.458;2022-09-09T07:21:05;4;4;
70570;PMS5003;58135;50.948;-1.458;2022-09-09T07:23:31;5;5;
70570;PMS5003;58135;50.948;-1.458;2022-09-09T07:25:56;7;6;
70570;PMS5003;58135;50.948;-1.458;2022-09-09T07:28:21;6;4;
70570;PMS5003;58135;50.948;-1.458;2022-09-09T07:33:12;4;4;
70570;PMS5003;58135;50.948;-1.458;2022-09-09T07:35:38;5;5;
70570;PMS5003;58135;50.948;-1.458;2022-09-09T07:38:03;8;6;
70570;PMS5003;58135;50.948;-1.458;2022-09-09T07:40:29;4;4;
70570;PMS5003;58135;50.948;-1.458;2022-09-09T07:42:54;5;4;
70570;PMS5003;58135;50.948;-1.458;2022-09-09T07:45:20;5;5;
70570;PMS5003;58135;50.948;-1.458;2022-09-09T07:47:45;5;4;
70570;PMS5003;58135;50.948;-1.458;2022-09-09T07:50:11;5;4;
70570;PMS5003;58135;50.948;-1.458;2022-09-09T07:52:36;4;4;
70570;PMS5003;58135;50.948;-1.458;2022-09-09T07:55:02;7;5;
70570;PMS5003;58135;50.948;-1.458;2022-09-09T07:57:27;5;5;
70570;PMS5003;58135;50.948;-1.458;2022-09-09T07:59:53;4;4;
70570;PMS5003;58135;50.948;-1.458;2022-09-09T08:02:18;7;4;
70570;PMS5003;58135;50.948;-1.458;2022-09-09T08:04:43;5;4;
70570;PMS5003;58135;50.948;-1.458;2022-09-09T08:07:09;4;4;
70570;PMS5003;58135;50.948;-1.458;2022-09-09T08:09:35;4;4;
70570;PMS5003;58135;50.948;-1.458;2022-09-09T08:12:00;3;3;
70570;PMS5003;58135;50.948;-1.458;2022-09-09T08:14:26;6;6;
70570;PMS5003;58135;50.948;-1.458;2022-09-09T08:16:51;4;4;
70570;PMS5003;58135;50.948;-1.458;2022-09-09T08:19:16;3;3;
70570;PMS5003;58135;50.948;-1.458;2022-09-09T08:21:43;3;3;
70570;PMS5003;58135;50.948;-1.458;2022-09-09T08:24:08;5;5;
70570;PMS5003;58135;50.948;-1.458;2022-09-09T08:26:34;5;5;
70570;PMS5003;58135;50.948;-1.458;2022-09-09T08:28:59;4;4;
70570;PMS5003;58135;50.948;-1.458;2022-09-09T08:31:25;4;4;
70570;PMS5003;58135;50.948;-1.458;2022-09-09T08:33:49;2;2;
70570;PMS5003;58135;50.948;-1.458;2022-09-09T08:36:15;6;5;
70570;PMS5003;58135;50.948;-1.458;2022-09-09T08:38:40;5;5;
70570;PMS5003;58135;50.948;-1.458;2022-09-09T08:41:11;4;4;
70570;PMS5003;58135;50.948;-1.458;2022-09-09T08:43:31;4;3;
70570;PMS5003;58135;50.948;-1.458;2022-09-09T08:45:57;3;3;
70570;PMS5003;58135;50.948;-1.458;2022-09-09T08:48:28;3;3;
70570;PMS5003;58135;50.948;-1.458;2022-09-09T08:50:48;4;4;
70570;PMS5003;58135;50.948;-1.458;2022-09-09T08:53:15;3;3;
70570;PMS5003;58135;50.948;-1.458;2022-09-09T08:55:40;3;3;
70570;PMS5003;58135;50.948;-1.458;2022-09-09T08:58:06;4;3;
70570;PMS5003;58135;50.948;-1.458;2022-09-09T09:00:31;5;4;
70570;PMS5003;58135;50.948;-1.458;2022-09-09T09:02:57;3;3;
70570;PMS5003;58135;50.948;-1.458;2022-09-09T09:05:23;4;4;
70570;PMS5003;58135;50.948;-1.458;2022-09-09T09:07:49;4;4;
70570;PMS5003;58135;50.948;-1.458;2022-09-09T09:10:14;4;3;
70570;PMS5003;58135;50.948;-1.458;2022-09-09T09:12:38;3;3;
70570;PMS5003;58135;50.948;-1.458;2022-09-09T09:15:05;3;3;
70570;PMS5003;58135;50.948;-1.458;2022-09-09T09:17:28;3;2;
70570;PMS5003;58135;50.948;-1.458;2022-09-09T09:19:53;2;2;
70570;PMS5003;58135;50.948;-1.458;2022-09-09T09:22:19;3;3;
70570;PMS5003;58135;50.948;-1.458;2022-09-09T09:24:46;4;3;
70570;PMS5003;58135;50.948;-1.458;2022-09-09T09:27:12;2;2;
70570;PMS5003;58135;50.948;-1.458;2022-09-09T09:29:35;2;1;
70570;PMS5003;58135;50.948;-1.458;2022-09-09T09:32:01;4;3;
70570;PMS5003;58135;50.948;-1.458;2022-09-09T09:34:26;2;2;
70570;PMS5003;58135;50.948;-1.458;2022-09-09T09:36:52;3;3;
70570;PMS5003;58135;50.948;-1.458;2022-09-09T09:39:22;5;5;
70570;PMS5003;58135;50.948;-1.458;2022-09-09T09:41:42;5;4;
70570;PMS5003;58135;50.948;-1.458;2022-09-09T09:46:33;4;4;
70570;PMS5003;58135;50.948;-1.458;2022-09-09T09:48:59;3;3;
70570;PMS5003;58135;50.948;-1.458;2022-09-09T09:51:25;3;3;
70570;PMS5003;58135;50.948;-1.458;2022-09-09T09:53:50;3;3;
70570;PMS5003;58135;50.948;-1.458;2022-09-09T09:56:15;3;2;
70570;PMS5003;58135;50.948;-1.458;2022-09-09T10:03:33;5;3;
70570;PMS5003;58135;50.948;-1.458;2022-09-09T10:05:57;3;1;
70570;PMS5003;58135;50.948;-1.458;2022-09-09T10:08:23;1;1;
70570;PMS5003;58135;50.948;-1.458;2022-09-09T10:10:51;5;3;
70570;PMS5003;58135;50.948;-1.458;2022-09-09T10:13:15;3;3;
70570;PMS5003;58135;50.948;-1.458;2022-09-09T10:15:41;4;2;
70570;PMS5003;58135;50.948;-1.458;2022-09-09T10:18:12;1;1;
70570;PMS5003;58135;50.948;-1.458;2022-09-09T10:20:32;1;1;
70570;PMS5003;58135;50.948;-1.458;2022-09-09T10:22:57;3;2;
70570;PMS5003;58135;50.948;-1.458;2022-09-09T10:25:24;3;2;
70570;PMS5003;58135;50.948;-1.458;2022-09-09T10:27:50;4;3;
70570;PMS5003;58135;50.948;-1.458;2022-09-09T10:30:14;2;2;
70570;PMS5003;58135;50.948;-1.458;2022-09-09T10:32:40;2;2;
70570;PMS5003;58135;50.948;-1.458;2022-09-09T10:35:04;4;4;
70570;PMS5003;58135;50.948;-1.458;2022-09-09T10:37:34;4;2;
70570;PMS5003;58135;50.948;-1.458;2022-09-09T10:39:55;6;3;
70570;PMS5003;58135;50.948;-1.458;2022-09-09T10:42:20;5;2;
70570;PMS5003;58135;50.948;-1.458;2022-09-09T10:44:49;3;3;
70570;PMS5003;58135;50.948;-1.458;2022-09-09T10:47:15;1;1;
70570;PMS5003;58135;50.948;-1.458;2022-09-09T10:52:02;2;2;
70570;PMS5003;58135;50.948;-1.458;2022-09-09T10:54:30;3;2;
70570;PMS5003;58135;50.948;-1.458;2022-09-09T10:56:55;2;1;
70570;PMS5003;58135;50.948;-1.458;2022-09-09T10:59:18;0;0;
70570;PMS5003;58135;50.948;-1.458;2022-09-09T11:01:44;5;3;
70570;PMS5003;58135;50.948;-1.458;2022-09-09T11:04:10;2;2;
70570;PMS5003;58135;50.948;-1.458;2022-09-09T11:06:35;3;2;
70570;PMS5003;58135;50.948;-1.458;2022-09-09T11:08:59;3;2;
70570;PMS5003;58135;50.948;-1.458;2022-09-09T11:11:26;3;3;
70570;PMS5003;58135;50.948;-1.458;2022-09-09T11:13:52;4;4;
70570;PMS5003;58135;50.948;-1.458;2022-09-09T11:16:19;3;2;
70570;PMS5003;58135;50.948;-1.458;2022-09-09T11:18:41;4;3;
70570;PMS5003;58135;50.948;-1.458;2022-09-09T11:21:08;3;3;
70570;PMS5003;58135;50.948;-1.458;2022-09-09T11:23:33;3;3;
70570;PMS5003;58135;50.948;-1.458;2022-09-09T11:25:58;3;3;
70570;PMS5003;58135;50.948;-1.458;2022-09-09T11:28:26;4;3;
70570;PMS5003;58135;50.948;-1.458;2022-09-09T11:30:51;3;3;
70570;PMS5003;58135;50.948;-1.458;2022-09-09T11:33:19;3;3;
70570;PMS5003;58135;50.948;-1.458;2022-09-09T11:35:44;2;2;
70570;PMS5003;58135;50.948;-1.458;2022-09-09T11:38:11;4;3;
70570;PMS5003;58135;50.948;-1.458;2022-09-09T11:40:30;3;2;
70570;PMS5003;58135;50.948;-1.458;2022-09-09T11:43:01;2;2;
70570;PMS5003;58135;50.948;-1.458;2022-09-09T11:45:23;3;3;
70570;PMS5003;58135;50.948;-1.458;2022-09-09T11:47:52;1;1;
70570;PMS5003;58135;50.948;-1.458;2022-09-09T11:52:38;2;2;
70570;PMS5003;58135;50.948;-1.458;2022-09-09T11:55:08;2;2;
70570;PMS5003;58135;50.948;-1.458;2022-09-09T11:57:30;2;2;
70570;PMS5003;58135;50.948;-1.458;2022-09-09T11:59:54;5;5;
70570;PMS5003;58135;50.948;-1.458;2022-09-09T12:02:22;3;3;
70570;PMS5003;58135;50.948;-1.458;2022-09-09T12:04:46;2;2;
70570;PMS5003;58135;50.948;-1.458;2022-09-09T12:09:44;2;2;
70570;PMS5003;58135;50.948;-1.458;2022-09-09T12:12:05;4;3;
70570;PMS5003;58135;50.948;-1.458;2022-09-09T12:16:52;3;3;
70570;PMS5003;58135;50.948;-1.458;2022-09-09T12:19:18;2;2;
70570;PMS5003;58135;50.948;-1.458;2022-09-09T12:21:45;5;5;
70570;PMS5003;58135;50.948;-1.458;2022-09-09T12:24:09;3;3;
70570;PMS5003;58135;50.948;-1.458;2022-09-09T12:26:35;3;3;
70570;PMS5003;58135;50.948;-1.458;2022-09-09T12:29:03;2;2;
70570;PMS5003;58135;50.948;-1.458;2022-09-09T12:31:25;2;2;
70570;PMS5003;58135;50.948;-1.458;2022-09-09T12:33:50;0;0;
70570;PMS5003;58135;50.948;-1.458;2022-09-09T12:36:16;2;2;
70570;PMS5003;58135;50.948;-1.458;2022-09-09T12:38:42;1;1;
70570;PMS5003;58135;50.948;-1.458;2022-09-09T12:43:32;3;3;
70570;PMS5003;58135;50.948;-1.458;2022-09-09T12:45:58;3;3;
70570;PMS5003;58135;50.948;-1.458;2022-09-09T12:48:25;3;3;
70570;PMS5003;58135;50.948;-1.458;2022-09-09T12:50:49;4;3;
70570;PMS5003;58135;50.948;-1.458;2022-09-09T12:53:15;2;2;
70570;PMS5003;58135;50.948;-1.458;2022-09-09T12:55:48;2;2;
70570;PMS5003;58135;50.948;-1.458;2022-09-09T12:58:05;1;1;
70570;PMS5003;58135;50.948;-1.458;2022-09-09T13:00:31;2;2;
70570;PMS5003;58135;50.948;-1.458;2022-09-09T13:02:57;2;2;
70570;PMS5003;58135;50.948;-1.458;2022-09-09T13:05:22;0;0;
70570;PMS5003;58135;50.948;-1.458;2022-09-09T13:07:47;2;1;
70570;PMS5003;58135;50.948;-1.458;2022-09-09T13:10:13;1;1;
70570;PMS5003;58135;50.948;-1.458;2022-09-09T13:12:38;2;1;
70570;PMS5003;58135;50.948;-1.458;2022-09-09T13:15:04;2;2;
70570;PMS5003;58135;50.948;-1.458;2022-09-09T13:17:29;2;2;
70570;PMS5003;58135;50.948;-1.458;2022-09-09T13:19:55;3;3;
70570;PMS5003;58135;50.948;-1.458;2022-09-09T13:22:21;2;2;
70570;PMS5003;58135;50.948;-1.458;2022-09-09T13:24:45;3;3;
70570;PMS5003;58135;50.948;-1.458;2022-09-09T13:27:23;2;2;
70570;PMS5003;58135;50.948;-1.458;2022-09-09T13:29:36;3;3;
70570;PMS5003;58135;50.948;-1.458;2022-09-09T13:32:03;1;1;
70570;PMS5003;58135;50.948;-1.458;2022-09-09T13:34:28;3;3;
70570;PMS5003;58135;50.948;-1.458;2022-09-09T13:36:53;3;3;
70570;PMS5003;58135;50.948;-1.458;2022-09-09T13:39:18;3;2;
70570;PMS5003;58135;50.948;-1.458;2022-09-09T13:41:44;4;3;
70570;PMS5003;58135;50.948;-1.458;2022-09-09T13:44:14;3;3;
70570;PMS5003;58135;50.948;-1.458;2022-09-09T13:46:36;3;2;
70570;PMS5003;58135;50.948;-1.458;2022-09-09T13:49:00;3;3;
70570;PMS5003;58135;50.948;-1.458;2022-09-09T13:51:29;2;1;
70570;PMS5003;58135;50.948;-1.458;2022-09-09T13:53:51;3;3;
70570;PMS5003;58135;50.948;-1.458;2022-09-09T13:56:16;1;1;
70570;PMS5003;58135;50.948;-1.458;2022-09-09T13:58:42;3;2;
70570;PMS5003;58135;50.948;-1.458;2022-09-09T14:01:07;4;4;
70570;PMS5003;58135;50.948;-1.458;2022-09-09T14:03:32;2;2;
70570;PMS5003;58135;50.948;-1.458;2022-09-09T14:05:58;1;1;
70570;PMS5003;58135;50.948;-1.458;2022-09-09T14:08:24;2;2;
70570;PMS5003;58135;50.948;-1.458;2022-09-09T14:10:49;3;2;
70570;PMS5003;58135;50.948;-1.458;2022-09-09T14:13:14;3;3;
70570;PMS5003;58135;50.948;-1.458;2022-09-09T14:15:40;2;1;
70570;PMS5003;58135;50.948;-1.458;2022-09-09T14:18:05;3;3;
70570;PMS5003;58135;50.948;-1.458;2022-09-09T14:20:31;1;1;
70570;PMS5003;58135;50.948;-1.458;2022-09-09T14:22:56;1;1;
70570;PMS5003;58135;50.948;-1.458;2022-09-09T14:25:22;2;2;
70570;PMS5003;58135;50.948;-1.458;2022-09-09T14:27:47;2;2;
70570;PMS5003;58135;50.948;-1.458;2022-09-09T14:30:12;3;2;
70570;PMS5003;58135;50.948;-1.458;2022-09-09T14:32:38;3;2;
70570;PMS5003;58135;50.948;-1.458;2022-09-09T14:35:04;2;2;
70570;PMS5003;58135;50.948;-1.458;2022-09-09T14:37:29;3;3;
70570;PMS5003;58135;50.948;-1.458;2022-09-09T14:39:54;2;2;
70570;PMS5003;58135;50.948;-1.458;2022-09-09T14:42:20;5;3;
70570;PMS5003;58135;50.948;-1.458;2022-09-09T14:44:46;4;4;
70570;PMS5003;58135;50.948;-1.458;2022-09-09T14:47:11;2;2;
70570;PMS5003;58135;50.948;-1.458;2022-09-09T14:49:36;4;4;
70570;PMS5003;58135;50.948;-1.458;2022-09-09T14:52:02;4;4;
70570;PMS5003;58135;50.948;-1.458;2022-09-09T14:54:27;2;2;
70570;PMS5003;58135;50.948;-1.458;2022-09-09T14:56:53;4;4;
70570;PMS5003;58135;50.948;-1.458;2022-09-09T14:59:18;4;4;
70570;PMS5003;58135;50.948;-1.458;2022-09-09T15:01:43;3;3;
70570;PMS5003;58135;50.948;-1.458;2022-09-09T15:04:10;3;2;
70570;PMS5003;58135;50.948;-1.458;2022-09-09T15:06:35;3;3;
70570;PMS5003;58135;50.948;-1.458;2022-09-09T15:09:00;3;2;
70570;PMS5003;58135;50.948;-1.458;2022-09-09T15:11:26;3;3;
70570;PMS5003;58135;50.948;-1.458;2022-09-09T15:13:51;4;3;
70570;PMS5003;58135;50.948;-1.458;2022-09-09T15:16:17;3;3;
70570;PMS5003;58135;50.948;-1.458;2022-09-09T15:18:42;1;1;
70570;PMS5003;58135;50.948;-1.458;2022-09-09T15:21:07;3;3;
70570;PMS5003;58135;50.948;-1.458;2022-09-09T15:23:32;2;2;
70570;PMS5003;58135;50.948;-1.458;2022-09-09T15:26:04;3;3;
70570;PMS5003;58135;50.948;-1.458;2022-09-09T15:28:23;3;3;
70570;PMS5003;58135;50.948;-1.458;2022-09-09T15:30:49;2;2;
70570;PMS5003;58135;50.948;-1.458;2022-09-09T15:33:14;3;2;
70570;PMS5003;58135;50.948;-1.458;2022-09-09T15:35:40;2;2;
70570;PMS5003;58135;50.948;-1.458;2022-09-09T15:38:05;4;4;
70570;PMS5003;58135;50.948;-1.458;2022-09-09T15:40:30;3;3;
70570;PMS5003;58135;50.948;-1.458;2022-09-09T15:42:56;3;3;
70570;PMS5003;58135;50.948;-1.458;2022-09-09T15:45:22;2;2;
70570;PMS5003;58135;50.948;-1.458;2022-09-09T15:47:47;4;3;
70570;PMS5003;58135;50.948;-1.458;2022-09-09T15:50:12;1;1;
70570;PMS5003;58135;50.948;-1.458;2022-09-09T15:52:38;1;1;
70570;PMS5003;58135;50.948;-1.458;2022-09-09T15:55:04;3;3;
70570;PMS5003;58135;50.948;-1.458;2022-09-09T15:57:29;3;3;
70570;PMS5003;58135;50.948;-1.458;2022-09-09T15:59:54;3;3;
70570;PMS5003;58135;50.948;-1.458;2022-09-09T16:02:20;3;3;
70570;PMS5003;58135;50.948;-1.458;2022-09-09T16:04:45;2;2;
70570;PMS5003;58135;50.948;-1.458;2022-09-09T16:07:10;3;3;
70570;PMS5003;58135;50.948;-1.458;2022-09-09T16:09:36;3;1;
70570;PMS5003;58135;50.948;-1.458;2022-09-09T16:12:02;2;2;
70570;PMS5003;58135;50.948;-1.458;2022-09-09T16:14:27;4;3;
70570;PMS5003;58135;50.948;-1.458;2022-09-09T16:16:52;2;2;
70570;PMS5003;58135;50.948;-1.458;2022-09-09T16:19:18;1;1;
70570;PMS5003;58135;50.948;-1.458;2022-09-09T16:21:44;2;2;
70570;PMS5003;58135;50.948;-1.458;2022-09-09T16:24:09;3;2;
70570;PMS5003;58135;50.948;-1.458;2022-09-09T16:26:35;1;1;
70570;PMS5003;58135;50.948;-1.458;2022-09-09T16:29:00;5;5;
70570;PMS5003;58135;50.948;-1.458;2022-09-09T16:31:25;3;2;
70570;PMS5003;58135;50.948;-1.458;2022-09-09T16:33:50;4;4;
70570;PMS5003;58135;50.948;-1.458;2022-09-09T16:36:17;2;1;
70570;PMS5003;58135;50.948;-1.458;2022-09-09T16:38:42;3;2;